createdAt,value
2019-05-05T00:01:36.774Z,23.37
2019-05-05T00:04:39.864Z,22.53
2019-05-05T00:07:14.913Z,20.20
2019-05-05T00:09:45.005Z,19.07
2019-05-05T00:12:34.393Z,23.00
2019-05-05T00:15:21.094Z,22.83
2019-05-05T00:17:50.504Z,21.37
2019-05-05T00:20:19.455Z,21.83
2019-05-05T00:22:48.389Z,19.93
2019-05-05T00:25:17.319Z,19.30
2019-05-05T00:27:49.591Z,20.70
2019-05-05T00:30:19.411Z,23.87
2019-05-05T00:32:48.340Z,22.10
2019-05-05T00:35:17.336Z,24.07
2019-05-05T00:37:46.364Z,22.10
2019-05-05T00:40:15.297Z,23.17
2019-05-05T00:42:45.582Z,26.77
2019-05-05T00:45:15.500Z,30.60
2019-05-05T00:47:49.242Z,36.40
2019-05-05T00:50:20.112Z,34.70
2019-05-05T00:52:49.043Z,25.53
2019-05-05T00:55:17.994Z,27.73
2019-05-05T00:57:46.919Z,25.77
2019-05-05T01:00:21.785Z,48.87
2019-05-05T01:02:51.841Z,32.87
2019-05-05T01:05:34.412Z,25.13
2019-05-05T01:08:09.697Z,27.77
2019-05-05T01:10:38.886Z,29.83
2019-05-05T01:13:08.044Z,29.20
2019-05-05T01:15:37.167Z,25.10
2019-05-05T01:18:06.289Z,28.07
2019-05-05T01:20:35.308Z,29.43
2019-05-05T01:23:04.521Z,28.03
2019-05-05T01:25:34.694Z,35.23
2019-05-05T01:28:05.043Z,29.27
2019-05-05T01:30:36.226Z,32.47
2019-05-05T01:33:12.047Z,31.40
2019-05-05T01:35:41.174Z,29.47
2019-05-05T01:38:18.663Z,30.90
2019-05-05T01:41:10.960Z,32.90
2019-05-05T01:43:42.493Z,31.13
2019-05-05T01:46:11.505Z,37.27
2019-05-05T01:48:40.740Z,34.43
2019-05-05T01:51:09.865Z,32.13
2019-05-05T01:53:38.882Z,32.43
2019-05-05T01:56:08.570Z,29.17
2019-05-05T01:58:37.448Z,28.60
2019-05-05T02:01:06.363Z,26.60
2019-05-05T02:03:35.461Z,27.50
2019-05-05T02:06:05.230Z,29.77
2019-05-05T02:08:35.059Z,28.47
2019-05-05T02:11:05.224Z,33.10
2019-05-05T02:13:34.635Z,30.60
2019-05-05T02:16:04.665Z,29.10
2019-05-05T02:18:34.592Z,26.83
2019-05-05T02:21:05.266Z,28.37
2019-05-05T02:23:35.371Z,30.07
2019-05-05T02:26:05.155Z,31.03
2019-05-05T02:28:51.231Z,32.63
2019-05-05T02:31:40.475Z,28.13
2019-05-05T02:34:10.689Z,29.70
2019-05-05T02:36:39.717Z,30.87
2019-05-05T02:39:11.183Z,35.07
2019-05-05T02:41:40.826Z,42.37
2019-05-05T02:44:09.756Z,41.87
2019-05-05T02:46:55.139Z,37.97
2019-05-05T02:49:25.518Z,32.37
2019-05-05T02:51:55.281Z,35.77
2019-05-05T02:54:24.874Z,33.13
2019-05-05T02:56:54.297Z,32.23
2019-05-05T02:59:30.273Z,32.57
2019-05-05T03:02:09.197Z,32.97
2019-05-05T03:04:38.313Z,31.40
2019-05-05T03:07:09.044Z,32.33
2019-05-05T03:09:38.193Z,28.73
2019-05-05T03:12:10.860Z,30.20
2019-05-05T03:14:39.920Z,30.60
2019-05-05T03:17:11.212Z,31.00
2019-05-05T03:19:40.354Z,30.20
2019-05-05T03:22:09.534Z,29.90
2019-05-05T03:24:38.501Z,29.47
2019-05-05T03:27:10.054Z,29.10
2019-05-05T03:29:39.438Z,27.30
2019-05-05T03:32:11.411Z,29.90
2019-05-05T03:34:39.187Z,29.23
2019-05-05T03:37:09.081Z,29.80
2019-05-05T03:39:39.684Z,30.97
2019-05-05T03:42:24.365Z,30.83
2019-05-05T03:44:55.689Z,34.20
2019-05-05T03:47:24.668Z,38.10
2019-05-05T03:49:53.708Z,35.73
2019-05-05T03:52:24.494Z,33.20
2019-05-05T03:54:55.695Z,36.37
2019-05-05T03:57:24.772Z,33.13
2019-05-05T03:59:54.787Z,31.93
2019-05-05T04:02:46.058Z,29.87
2019-05-05T04:05:34.557Z,32.30
2019-05-05T04:08:03.974Z,31.63
2019-05-05T04:10:33.554Z,30.43
2019-05-05T04:13:04.658Z,31.23
2019-05-05T04:15:35.236Z,28.33
2019-05-05T04:18:25.551Z,33.90
2019-05-05T04:20:54.483Z,30.40
2019-05-05T04:23:24.535Z,28.40
2019-05-05T04:25:54.424Z,35.70
2019-05-05T04:28:24.121Z,27.90
2019-05-05T04:30:53.715Z,28.43
2019-05-05T04:33:23.644Z,31.53
2019-05-05T04:35:54.501Z,25.80
2019-05-05T04:38:24.314Z,29.33
2019-05-05T04:40:54.174Z,26.87
2019-05-05T04:43:24.611Z,33.90
2019-05-05T04:45:54.195Z,29.67
2019-05-05T04:48:54.543Z,29.73
2019-05-05T04:51:26.789Z,29.20
2019-05-05T04:54:26.701Z,27.77
2019-05-05T04:56:55.733Z,26.33
2019-05-05T04:59:24.646Z,28.53
2019-05-05T05:01:59.051Z,29.23
2019-05-05T05:04:50.914Z,25.97
2019-05-05T05:07:20.000Z,24.90
2019-05-05T05:09:48.899Z,23.60
2019-05-05T05:12:17.881Z,26.60
2019-05-05T05:14:46.856Z,22.53
2019-05-05T05:17:24.704Z,22.50
2019-05-05T05:19:54.236Z,26.97
2019-05-05T05:22:24.357Z,26.00
2019-05-05T05:24:54.094Z,30.70
2019-05-05T05:27:24.454Z,21.57
2019-05-05T05:29:56.590Z,22.83
2019-05-05T05:32:25.479Z,25.83
2019-05-05T05:34:54.493Z,22.93
2019-05-05T05:37:34.335Z,25.53
2019-05-05T05:40:10.705Z,23.23
2019-05-05T05:42:39.676Z,24.63
2019-05-05T05:45:39.723Z,25.93
2019-05-05T05:48:15.904Z,28.50
2019-05-05T05:50:56.161Z,29.90
2019-05-05T05:53:25.228Z,22.77
2019-05-05T05:55:54.625Z,25.17
2019-05-05T05:58:24.521Z,24.13
2019-05-05T06:00:54.490Z,24.83
2019-05-05T06:03:24.569Z,26.30
2019-05-05T06:05:54.107Z,28.40
2019-05-05T06:08:24.301Z,29.53
2019-05-05T06:10:54.716Z,26.97
2019-05-05T06:13:28.564Z,59.17
2019-05-05T06:15:58.166Z,29.57
2019-05-05T06:18:27.066Z,27.33
2019-05-05T06:21:07.233Z,23.30
2019-05-05T06:23:37.245Z,26.63
2019-05-05T06:26:07.235Z,27.23
2019-05-05T06:28:36.277Z,26.67
2019-05-05T06:31:05.257Z,24.87
2019-05-05T06:33:34.870Z,26.63
2019-05-05T06:36:04.034Z,27.20
2019-05-05T06:38:34.584Z,31.10
2019-05-05T06:41:18.789Z,29.47
2019-05-05T06:44:10.022Z,25.83
2019-05-05T06:46:59.164Z,30.10
2019-05-05T06:49:31.066Z,25.07
2019-05-05T06:52:03.882Z,24.00
2019-05-05T06:54:34.636Z,23.50
2019-05-05T06:57:09.955Z,46.37
2019-05-05T06:59:43.715Z,33.23
2019-05-05T07:02:14.384Z,45.60
2019-05-05T07:04:44.549Z,22.97
2019-05-05T07:07:16.818Z,21.97
2019-05-05T07:09:47.833Z,24.53
2019-05-05T07:12:16.767Z,21.00
2019-05-05T07:14:50.145Z,20.27
2019-05-05T07:17:19.367Z,19.20
2019-05-05T07:19:48.293Z,20.37
2019-05-05T07:22:17.878Z,18.67
2019-05-05T07:24:46.966Z,19.43
2019-05-05T07:27:18.478Z,21.87
2019-05-05T07:29:48.575Z,17.47
2019-05-05T07:32:17.516Z,17.57
2019-05-05T07:35:09.338Z,16.47
2019-05-05T07:37:38.430Z,16.87
2019-05-05T07:40:07.628Z,15.27
2019-05-05T07:42:37.775Z,16.73
2019-05-05T07:45:19.392Z,18.00
2019-05-05T07:47:37.564Z,34.00
2019-05-05T07:50:14.374Z,12.00
2019-05-05T07:52:38.206Z,12.90
2019-05-05T07:55:07.676Z,13.23
2019-05-05T07:57:36.695Z,19.07
2019-05-05T08:00:06.889Z,12.80
2019-05-05T08:02:35.816Z,21.00
2019-05-05T08:05:05.418Z,10.87
2019-05-05T08:07:34.447Z,10.63
2019-05-05T08:10:04.520Z,9.43
2019-05-05T08:12:34.250Z,17.73
2019-05-05T08:15:04.290Z,8.90
2019-05-05T08:17:50.217Z,11.87
2019-05-05T08:20:25.895Z,8.87
2019-05-05T08:22:55.093Z,8.43
2019-05-05T08:25:47.629Z,13.97
2019-05-05T08:28:30.916Z,9.53
2019-05-05T08:31:28.183Z,11.30
2019-05-05T08:33:57.218Z,9.03
2019-05-05T08:36:26.186Z,9.00
2019-05-05T08:38:55.194Z,10.30
2019-05-05T08:41:24.440Z,10.93
2019-05-05T08:43:54.472Z,13.13
2019-05-05T08:46:25.842Z,11.93
2019-05-05T08:48:54.928Z,8.47
2019-05-05T08:51:24.685Z,13.07
2019-05-05T08:53:54.607Z,14.80
2019-05-05T08:56:24.066Z,17.13
2019-05-05T08:58:54.494Z,20.03
2019-05-05T09:01:23.926Z,10.10
2019-05-05T09:03:53.543Z,5.60
2019-05-05T09:06:24.170Z,5.93
2019-05-05T09:08:54.817Z,7.83
2019-05-05T09:11:24.147Z,11.13
2019-05-05T09:13:53.515Z,7.30
2019-05-05T09:16:24.186Z,7.00
2019-05-05T09:18:59.522Z,10.23
2019-05-05T09:21:28.558Z,5.00
2019-05-05T09:24:02.609Z,5.97
2019-05-05T09:26:45.591Z,5.37
2019-05-05T09:29:24.329Z,16.50
2019-05-05T09:31:54.027Z,11.70
2019-05-05T09:34:24.053Z,15.43
2019-05-05T09:36:54.405Z,5.93
2019-05-05T09:39:24.707Z,9.20
2019-05-05T09:41:53.764Z,5.77
2019-05-05T09:44:27.592Z,5.90
2019-05-05T09:46:57.674Z,5.67
2019-05-05T09:49:28.818Z,4.40
2019-05-05T09:51:59.362Z,14.70
2019-05-05T09:54:28.346Z,4.07
2019-05-05T09:56:57.571Z,8.17
2019-05-05T09:59:26.490Z,10.67
2019-05-05T10:01:55.759Z,9.10
2019-05-05T10:04:26.045Z,9.57
2019-05-05T10:06:58.300Z,13.57
2019-05-05T10:09:27.500Z,7.13
2019-05-05T10:11:59.652Z,9.57
2019-05-05T10:14:28.620Z,9.23
2019-05-05T10:16:57.719Z,7.03
2019-05-05T10:19:26.707Z,7.73
2019-05-05T10:21:55.646Z,11.00
2019-05-05T10:24:33.900Z,6.97
2019-05-05T10:27:04.967Z,8.37
2019-05-05T10:29:34.935Z,4.73
2019-05-05T10:32:06.945Z,7.60
2019-05-05T10:34:36.067Z,8.77
2019-05-05T10:37:06.292Z,3.33
2019-05-05T10:39:43.873Z,7.27
2019-05-05T10:42:14.316Z,9.47
2019-05-05T10:44:44.948Z,5.47
2019-05-05T10:47:16.289Z,22.40
2019-05-05T10:49:46.885Z,6.90
2019-05-05T10:52:18.632Z,9.17
2019-05-05T10:54:49.658Z,4.10
2019-05-05T10:57:18.863Z,8.00
2019-05-05T10:59:47.982Z,10.03
2019-05-05T11:02:17.023Z,5.03
2019-05-05T11:04:46.031Z,6.40
2019-05-05T11:07:14.968Z,6.00
2019-05-05T11:09:44.451Z,8.10
2019-05-05T11:12:16.051Z,7.87
2019-05-05T11:14:46.791Z,3.90
2019-05-05T11:17:15.825Z,5.80
2019-05-05T11:19:46.431Z,6.07
2019-05-05T11:22:15.543Z,5.43
2019-05-05T11:24:57.250Z,8.63
2019-05-05T11:27:19.135Z,8.93
2019-05-05T11:30:06.132Z,7.03
2019-05-05T11:33:04.091Z,7.23
2019-05-05T11:35:48.597Z,6.90
2019-05-05T11:38:17.697Z,8.43
2019-05-05T11:40:46.876Z,3.13
2019-05-05T11:43:16.231Z,6.00
2019-05-05T11:45:45.609Z,34.17
2019-05-05T11:48:14.946Z,5.00
2019-05-05T11:50:45.112Z,6.20
2019-05-05T11:53:14.650Z,6.60
2019-05-05T11:55:46.340Z,2.97
2019-05-05T11:58:16.913Z,6.03
2019-05-05T12:00:46.095Z,7.93
2019-05-05T12:03:15.233Z,9.87
2019-05-05T12:05:46.955Z,5.13
2019-05-05T12:08:15.926Z,5.30
2019-05-05T12:11:04.887Z,5.10
2019-05-05T12:13:33.779Z,7.93
2019-05-05T12:16:04.827Z,7.20
2019-05-05T12:18:34.446Z,4.53
2019-05-05T12:21:05.154Z,14.13
2019-05-05T12:23:34.327Z,5.07
2019-05-05T12:26:34.755Z,8.77
2019-05-05T12:29:10.213Z,6.90
2019-05-05T12:31:45.775Z,7.17
2019-05-05T12:34:14.693Z,3.83
2019-05-05T12:36:44.509Z,18.93
2019-05-05T12:39:15.075Z,13.13
2019-05-05T12:41:47.261Z,18.83
2019-05-05T12:44:24.513Z,61.27
2019-05-05T12:47:03.808Z,313.03
2019-05-05T12:49:34.855Z,188.70
2019-05-05T12:52:05.380Z,16.37
2019-05-05T12:54:34.466Z,11.20
2019-05-05T12:57:05.281Z,11.47
2019-05-05T12:59:34.325Z,3.73
2019-05-05T13:02:03.894Z,2.60
2019-05-05T13:04:36.334Z,2.90
2019-05-05T13:07:09.132Z,5.23
2019-05-05T13:09:38.151Z,5.03
2019-05-05T13:12:07.574Z,5.93
2019-05-05T13:14:36.568Z,8.23
2019-05-05T13:17:07.575Z,4.67
2019-05-05T13:19:57.006Z,8.20
2019-05-05T13:22:40.293Z,5.20
2019-05-05T13:25:34.337Z,7.87
2019-05-05T13:28:04.110Z,4.90
2019-05-05T13:30:34.389Z,3.00
2019-05-05T13:33:03.773Z,5.37
2019-05-05T13:35:36.925Z,23.53
2019-05-05T13:38:05.985Z,12.03
2019-05-05T13:40:37.030Z,6.80
2019-05-05T13:43:06.009Z,4.53
2019-05-05T13:45:40.659Z,4.97
2019-05-05T13:48:09.630Z,4.03
2019-05-05T13:50:44.277Z,3.80
2019-05-05T13:53:16.974Z,4.43
2019-05-05T13:55:46.213Z,13.97
2019-05-05T13:58:17.056Z,5.47
2019-05-05T14:00:54.620Z,8.93
2019-05-05T14:03:29.383Z,16.27
2019-05-05T14:05:58.360Z,29.90
2019-05-05T14:08:27.345Z,32.27
2019-05-05T14:10:58.123Z,6.70
2019-05-05T14:13:27.319Z,4.10
2019-05-05T14:15:58.836Z,9.97
2019-05-05T14:18:27.766Z,5.20
2019-05-05T14:21:02.126Z,10.30
2019-05-05T14:23:34.528Z,6.30
2019-05-05T14:26:04.003Z,4.77
2019-05-05T14:28:34.021Z,18.23
2019-05-05T14:31:14.780Z,14.97
2019-05-05T14:34:01.114Z,7.43
2019-05-05T14:36:49.139Z,5.53
2019-05-05T14:39:19.290Z,2.90
2019-05-05T14:41:55.195Z,4.10
2019-05-05T14:44:24.166Z,7.13
2019-05-05T14:46:53.232Z,22.63
2019-05-05T14:49:24.471Z,17.90
2019-05-05T14:51:53.806Z,33.33
2019-05-05T14:54:25.634Z,35.53
2019-05-05T14:56:54.702Z,35.60
2019-05-05T14:59:23.837Z,10.80
2019-05-05T15:01:52.911Z,6.97
2019-05-05T15:04:25.179Z,7.60
2019-05-05T15:07:04.665Z,11.43
2019-05-05T15:09:50.146Z,8.87
2019-05-05T15:12:47.427Z,5.17
2019-05-05T15:15:16.606Z,15.27
2019-05-05T15:17:45.776Z,11.53
2019-05-05T15:20:16.546Z,7.27
2019-05-05T15:22:49.048Z,21.60
2019-05-05T15:25:19.417Z,5.43
2019-05-05T15:27:49.733Z,8.73
2019-05-05T15:30:19.022Z,7.73
2019-05-05T15:32:48.168Z,4.17
2019-05-05T15:35:18.863Z,10.87
2019-05-05T15:37:47.811Z,10.13
2019-05-05T15:40:16.960Z,76.43
2019-05-05T15:42:45.892Z,11.33
2019-05-05T15:45:16.534Z,18.00
2019-05-05T15:47:49.802Z,19.33
2019-05-05T15:50:19.090Z,17.87
2019-05-05T15:52:48.478Z,13.33
2019-05-05T15:55:24.522Z,14.60
2019-05-05T15:57:53.731Z,17.23
2019-05-05T16:00:22.799Z,10.47
2019-05-05T16:02:51.788Z,13.50
2019-05-05T16:05:21.019Z,41.23
2019-05-05T16:07:50.082Z,55.60
2019-05-05T16:10:19.191Z,13.93
2019-05-05T16:12:49.684Z,31.70
2019-05-05T16:15:38.144Z,33.63
2019-05-05T16:18:33.593Z,24.73
2019-05-05T16:21:30.849Z,53.50
2019-05-05T16:24:05.304Z,33.07
2019-05-05T16:26:34.235Z,17.03
2019-05-05T16:29:04.133Z,30.90
2019-05-05T16:31:34.236Z,36.83
2019-05-05T16:34:03.792Z,38.70
2019-05-05T16:36:33.581Z,17.70
2019-05-05T16:39:06.150Z,29.73
2019-05-05T16:41:36.786Z,51.60
2019-05-05T16:44:05.890Z,35.93
2019-05-05T16:46:34.819Z,63.87
2019-05-05T16:49:03.872Z,16.57
2019-05-05T16:51:36.331Z,29.60
2019-05-05T16:54:15.943Z,19.97
2019-05-05T16:56:49.721Z,22.33
2019-05-05T16:59:18.899Z,17.90
2019-05-05T17:01:48.050Z,21.87
2019-05-05T17:04:17.181Z,21.70
2019-05-05T17:06:46.219Z,18.93
2019-05-05T17:09:15.365Z,14.53
2019-05-05T17:12:03.601Z,16.10
2019-05-05T17:14:56.912Z,17.43
2019-05-05T17:17:34.843Z,22.30
2019-05-05T17:20:09.590Z,26.70
2019-05-05T17:22:44.777Z,17.57
2019-05-05T17:25:13.997Z,8.80
2019-05-05T17:27:48.765Z,11.37
2019-05-05T17:30:15.087Z,9.73
2019-05-05T17:32:45.695Z,9.87
2019-05-05T17:35:15.207Z,7.10
2019-05-05T17:37:45.659Z,8.33
2019-05-05T17:40:33.882Z,9.77
2019-05-05T17:43:24.317Z,11.47
2019-05-05T17:46:06.045Z,11.47
2019-05-05T17:49:05.818Z,8.73
2019-05-05T17:51:47.814Z,15.03
2019-05-05T17:54:24.210Z,16.23
2019-05-05T17:56:55.054Z,21.97
2019-05-05T17:59:25.498Z,16.13
2019-05-05T18:01:57.290Z,17.57
2019-05-05T18:04:26.680Z,24.47
2019-05-05T18:07:14.872Z,34.00
2019-05-05T18:10:18.011Z,48.17
2019-05-05T18:13:06.293Z,58.80
2019-05-05T18:15:55.423Z,53.83
2019-05-05T18:18:24.686Z,61.73
2019-05-05T18:20:55.298Z,121.60
2019-05-05T18:23:24.645Z,138.33
2019-05-05T18:25:54.842Z,166.43
2019-05-05T18:28:26.887Z,95.53
2019-05-05T18:30:56.254Z,86.87
2019-05-05T18:33:25.707Z,93.67
2019-05-05T18:35:54.993Z,58.83
2019-05-05T18:38:25.114Z,48.73
2019-05-05T18:40:56.640Z,31.37
2019-05-05T18:43:34.052Z,13.20
2019-05-05T18:46:08.171Z,20.63
2019-05-05T18:48:38.884Z,24.40
2019-05-05T18:51:10.421Z,20.43
2019-05-05T18:53:39.946Z,21.20
2019-05-05T18:56:10.009Z,15.43
2019-05-05T18:58:39.269Z,15.37
2019-05-05T19:01:17.639Z,16.17
2019-05-05T19:04:04.510Z,14.73
2019-05-05T19:07:01.488Z,17.27
2019-05-05T19:09:30.948Z,18.00
2019-05-05T19:12:00.743Z,15.27
2019-05-05T19:14:30.567Z,16.93
2019-05-05T19:17:00.039Z,18.03
2019-05-05T19:19:34.503Z,16.50
2019-05-05T19:22:10.539Z,16.53
2019-05-05T19:24:44.083Z,16.37
2019-05-05T19:27:14.373Z,13.10
2019-05-05T19:29:47.036Z,17.50
2019-05-05T19:32:17.076Z,20.50
2019-05-05T19:34:46.428Z,29.47
2019-05-05T19:37:15.788Z,20.03
2019-05-05T19:39:45.487Z,22.07
2019-05-05T19:42:14.655Z,17.53
2019-05-05T19:44:44.670Z,16.63
2019-05-05T19:47:20.477Z,13.40
2019-05-05T19:49:58.246Z,15.10
2019-05-05T19:52:27.542Z,16.90
2019-05-05T19:54:57.049Z,17.43
2019-05-05T19:57:26.247Z,17.93
2019-05-05T19:59:55.589Z,19.97
2019-05-05T20:02:25.865Z,17.60
2019-05-05T20:04:54.905Z,18.87
2019-05-05T20:07:24.906Z,15.87
2019-05-05T20:09:57.778Z,12.90
2019-05-05T20:12:26.854Z,9.37
2019-05-05T20:14:56.009Z,12.27
2019-05-05T20:17:36.192Z,12.90
2019-05-05T20:20:11.269Z,15.63
2019-05-05T20:22:40.225Z,13.03
2019-05-05T20:25:09.300Z,15.07
2019-05-05T20:27:38.371Z,15.07
2019-05-05T20:30:07.444Z,36.57
2019-05-05T20:32:42.898Z,37.43
2019-05-05T20:35:37.032Z,88.23
2019-05-05T20:38:14.149Z,61.20
2019-05-05T20:40:44.329Z,53.73
2019-05-05T20:43:17.008Z,36.30
2019-05-05T20:45:46.017Z,26.87
2019-05-05T20:48:54.284Z,24.10
2019-05-05T20:51:13.767Z,21.27
2019-05-05T20:53:48.939Z,31.50
2019-05-05T20:56:16.477Z,20.63
2019-05-05T20:58:45.429Z,19.20
2019-05-05T21:01:17.607Z,42.47
2019-05-05T21:03:47.643Z,71.43
2019-05-05T21:06:16.542Z,78.43
2019-05-05T21:08:52.601Z,55.83
2019-05-05T21:11:21.843Z,72.53
2019-05-05T21:13:50.860Z,66.83
2019-05-05T21:16:19.976Z,66.50
2019-05-05T21:18:49.010Z,72.63
2019-05-05T21:21:24.657Z,71.87
2019-05-05T21:24:00.663Z,80.57
2019-05-05T21:26:47.361Z,56.83
2019-05-05T21:29:17.707Z,51.10
2019-05-05T21:31:46.774Z,22.63
2019-05-05T21:34:15.954Z,16.40
2019-05-05T21:36:45.049Z,17.37
2019-05-05T21:39:15.439Z,15.60
2019-05-05T21:41:45.828Z,15.80
2019-05-05T21:44:14.885Z,14.17
2019-05-05T21:46:43.880Z,15.67
2019-05-05T21:49:13.609Z,14.30
2019-05-05T21:51:53.978Z,17.10
2019-05-05T21:54:43.912Z,12.57
2019-05-05T21:57:41.374Z,17.47
2019-05-05T22:00:28.360Z,15.90
2019-05-05T22:02:58.036Z,16.30
2019-05-05T22:05:28.056Z,15.27
2019-05-05T22:07:56.969Z,20.77
2019-05-05T22:10:25.982Z,18.03
2019-05-05T22:12:55.020Z,24.03
2019-05-05T22:15:23.952Z,18.97
2019-05-05T22:17:54.282Z,18.13
2019-05-05T22:20:33.969Z,22.00
2019-05-05T22:23:03.796Z,16.67
2019-05-05T22:25:34.161Z,16.13
2019-05-05T22:28:04.264Z,23.30
2019-05-05T22:30:34.441Z,16.97
2019-05-05T22:33:05.723Z,16.77
2019-05-05T22:35:34.885Z,16.47
2019-05-05T22:38:06.119Z,15.47
2019-05-05T22:40:35.252Z,32.43
2019-05-05T22:43:05.450Z,21.43
2019-05-05T22:45:34.457Z,22.83
2019-05-05T22:48:04.719Z,30.03
2019-05-05T22:50:34.159Z,28.80
2019-05-05T22:53:03.217Z,22.40
2019-05-05T22:55:34.359Z,24.67
2019-05-05T22:58:03.971Z,27.20
2019-05-05T23:00:34.772Z,23.93
2019-05-05T23:03:16.076Z,22.20
2019-05-05T23:05:55.638Z,27.70
2019-05-05T23:08:25.705Z,24.57
2019-05-05T23:10:54.643Z,25.63
2019-05-05T23:13:23.682Z,25.63
2019-05-05T23:15:59.968Z,18.50
2019-05-05T23:18:28.985Z,17.23
2019-05-05T23:21:21.942Z,26.97
2019-05-05T23:24:23.815Z,31.30
2019-05-05T23:26:54.600Z,29.20
2019-05-05T23:29:26.644Z,19.73
2019-05-05T23:31:55.651Z,22.23
2019-05-05T23:34:24.646Z,21.30
2019-05-05T23:36:53.713Z,16.60
2019-05-05T23:39:24.275Z,18.93
2019-05-05T23:41:54.823Z,20.13
2019-05-05T23:44:26.154Z,16.20
2019-05-05T23:46:55.105Z,17.03
2019-05-05T23:49:24.373Z,15.87
2019-05-05T23:51:55.200Z,18.53
2019-05-05T23:54:24.827Z,17.03
2019-05-05T23:56:54.069Z,15.63
2019-05-05T23:59:24.045Z,16.23
